Holland, Nebraska
Current Conditions -  °F | °C
As of 6:11 AM on Monday 24 Nov 2014 (Local Time) from KLNK Reporting Station
Overcast Overcast  
Wind Chill: 20°   Ceiling: 2900
Heat Index: 33°   Visibility: 10mi
Dew Point: 19°   Wind: 26mph
Humidity: 56%   Direction: 320°NW
Pressure: 29.64"   Gusts: 36mph
Location:  40.6166°N, 96.617°W
Report Text: KLNK 241211Z 32023G31KT 10SM OVC029 01/M07 A2964 RMK AO2 PK WND 32031/1210 T00061072
Loading
Personal Weather Stations






























Interactive Weather Map New forecast layout! Learn more

10-Day Weather Forecast

Advertisements
Track Severe Weather on mobile